sensor_id;sensor_type;location;lat;lon;timestamp;P1;durP1;ratioP1;P2;durP2;ratioP2
10701;SDS011;5402;50.004;8.246;2022-09-21T00:01:55;4.27;;;3.10;;
10701;SDS011;5402;50.004;8.246;2022-09-21T00:04:24;5.60;;;3.20;;
10701;SDS011;5402;50.004;8.246;2022-09-21T00:06:51;5.13;;;2.90;;
10701;SDS011;5402;50.004;8.246;2022-09-21T00:09:18;5.57;;;2.83;;
10701;SDS011;5402;50.004;8.246;2022-09-21T00:11:45;4.50;;;2.93;;
10701;SDS011;5402;50.004;8.246;2022-09-21T00:14:12;4.27;;;3.00;;
10701;SDS011;5402;50.004;8.246;2022-09-21T00:16:39;4.67;;;2.90;;
10701;SDS011;5402;50.004;8.246;2022-09-21T00:19:07;5.00;;;3.13;;
10701;SDS011;5402;50.004;8.246;2022-09-21T00:21:39;4.10;;;2.80;;
10701;SDS011;5402;50.004;8.246;2022-09-21T00:24:06;5.00;;;2.83;;
10701;SDS011;5402;50.004;8.246;2022-09-21T00:26:36;4.83;;;3.00;;
10701;SDS011;5402;50.004;8.246;2022-09-21T00:29:03;5.80;;;2.80;;
10701;SDS011;5402;50.004;8.246;2022-09-21T00:31:30;3.47;;;2.93;;
10701;SDS011;5402;50.004;8.246;2022-09-21T00:33:58;4.60;;;2.57;;
10701;SDS011;5402;50.004;8.246;2022-09-21T00:36:25;4.00;;;3.03;;
10701;SDS011;5402;50.004;8.246;2022-09-21T00:38:54;3.83;;;2.73;;
10701;SDS011;5402;50.004;8.246;2022-09-21T00:41:23;4.17;;;2.70;;
10701;SDS011;5402;50.004;8.246;2022-09-21T00:46:57;5.10;;;2.90;;
10701;SDS011;5402;50.004;8.246;2022-09-21T00:49:29;5.40;;;3.20;;
10701;SDS011;5402;50.004;8.246;2022-09-21T00:51:56;3.47;;;2.60;;
10701;SDS011;5402;50.004;8.246;2022-09-21T00:54:27;4.27;;;3.13;;
10701;SDS011;5402;50.004;8.246;2022-09-21T00:56:57;6.17;;;3.10;;
10701;SDS011;5402;50.004;8.246;2022-09-21T00:59:27;4.40;;;3.10;;
10701;SDS011;5402;50.004;8.246;2022-09-21T01:01:56;4.30;;;2.90;;
10701;SDS011;5402;50.004;8.246;2022-09-21T01:04:24;3.53;;;2.80;;
10701;SDS011;5402;50.004;8.246;2022-09-21T01:06:52;4.47;;;2.90;;
10701;SDS011;5402;50.004;8.246;2022-09-21T01:09:19;4.70;;;2.83;;
10701;SDS011;5402;50.004;8.246;2022-09-21T01:11:49;4.50;;;3.10;;
10701;SDS011;5402;50.004;8.246;2022-09-21T01:14:32;3.63;;;2.77;;
10701;SDS011;5402;50.004;8.246;2022-09-21T01:17:13;4.33;;;2.70;;
10701;SDS011;5402;50.004;8.246;2022-09-21T01:19:53;5.03;;;3.30;;
10701;SDS011;5402;50.004;8.246;2022-09-21T01:22:50;5.20;;;2.87;;
10701;SDS011;5402;50.004;8.246;2022-09-21T01:25:34;3.43;;;2.70;;
10701;SDS011;5402;50.004;8.246;2022-09-21T01:28:14;4.50;;;3.13;;
10701;SDS011;5402;50.004;8.246;2022-09-21T01:30:50;3.70;;;2.53;;
10701;SDS011;5402;50.004;8.246;2022-09-21T01:33:20;5.07;;;2.80;;
10701;SDS011;5402;50.004;8.246;2022-09-21T01:35:51;3.73;;;2.80;;
10701;SDS011;5402;50.004;8.246;2022-09-21T01:38:22;4.57;;;3.00;;
10701;SDS011;5402;50.004;8.246;2022-09-21T01:40:51;4.07;;;2.90;;
10701;SDS011;5402;50.004;8.246;2022-09-21T01:43:22;3.80;;;3.03;;
10701;SDS011;5402;50.004;8.246;2022-09-21T01:45:53;5.17;;;2.97;;
10701;SDS011;5402;50.004;8.246;2022-09-21T01:48:26;4.37;;;2.87;;
10701;SDS011;5402;50.004;8.246;2022-09-21T01:50:56;4.87;;;2.87;;
10701;SDS011;5402;50.004;8.246;2022-09-21T01:53:25;4.60;;;3.13;;
10701;SDS011;5402;50.004;8.246;2022-09-21T01:55:57;3.93;;;2.73;;
10701;SDS011;5402;50.004;8.246;2022-09-21T01:58:27;3.47;;;2.60;;
10701;SDS011;5402;50.004;8.246;2022-09-21T02:00:59;3.93;;;2.97;;
10701;SDS011;5402;50.004;8.246;2022-09-21T02:03:28;4.53;;;2.77;;
10701;SDS011;5402;50.004;8.246;2022-09-21T02:05:59;3.63;;;2.90;;
10701;SDS011;5402;50.004;8.246;2022-09-21T02:08:28;4.43;;;2.93;;
10701;SDS011;5402;50.004;8.246;2022-09-21T02:10:58;5.63;;;2.80;;
10701;SDS011;5402;50.004;8.246;2022-09-21T02:13:28;4.67;;;2.73;;
10701;SDS011;5402;50.004;8.246;2022-09-21T02:16:02;5.87;;;2.93;;
10701;SDS011;5402;50.004;8.246;2022-09-21T02:18:42;4.07;;;2.80;;
10701;SDS011;5402;50.004;8.246;2022-09-21T02:21:20;3.93;;;2.70;;
10701;SDS011;5402;50.004;8.246;2022-09-21T02:23:52;3.73;;;2.70;;
10701;SDS011;5402;50.004;8.246;2022-09-21T02:26:28;4.23;;;2.93;;
10701;SDS011;5402;50.004;8.246;2022-09-21T02:29:06;5.33;;;2.80;;
10701;SDS011;5402;50.004;8.246;2022-09-21T02:31:42;3.73;;;2.77;;
10701;SDS011;5402;50.004;8.246;2022-09-21T02:34:15;4.47;;;2.90;;
10701;SDS011;5402;50.004;8.246;2022-09-21T02:36:46;5.43;;;2.90;;
10701;SDS011;5402;50.004;8.246;2022-09-21T02:39:23;4.73;;;2.87;;
10701;SDS011;5402;50.004;8.246;2022-09-21T02:41:59;3.33;;;2.97;;
10701;SDS011;5402;50.004;8.246;2022-09-21T02:44:32;4.10;;;2.93;;
10701;SDS011;5402;50.004;8.246;2022-09-21T02:47:05;6.73;;;3.03;;
10701;SDS011;5402;50.004;8.246;2022-09-21T02:49:38;4.30;;;3.00;;
10701;SDS011;5402;50.004;8.246;2022-09-21T02:52:09;4.40;;;2.80;;
10701;SDS011;5402;50.004;8.246;2022-09-21T02:54:38;5.60;;;2.90;;
10701;SDS011;5402;50.004;8.246;2022-09-21T02:57:06;3.97;;;2.77;;
10701;SDS011;5402;50.004;8.246;2022-09-21T02:59:36;5.17;;;2.70;;
10701;SDS011;5402;50.004;8.246;2022-09-21T03:02:05;3.47;;;3.17;;
10701;SDS011;5402;50.004;8.246;2022-09-21T03:04:32;4.37;;;3.30;;
10701;SDS011;5402;50.004;8.246;2022-09-21T03:06:59;3.63;;;2.70;;
10701;SDS011;5402;50.004;8.246;2022-09-21T03:09:25;6.40;;;2.97;;
10701;SDS011;5402;50.004;8.246;2022-09-21T03:11:54;3.80;;;3.00;;
10701;SDS011;5402;50.004;8.246;2022-09-21T03:14:21;7.40;;;2.90;;
10701;SDS011;5402;50.004;8.246;2022-09-21T03:16:47;4.47;;;2.80;;
10701;SDS011;5402;50.004;8.246;2022-09-21T03:19:15;5.47;;;2.80;;
10701;SDS011;5402;50.004;8.246;2022-09-21T03:21:42;5.03;;;2.90;;
10701;SDS011;5402;50.004;8.246;2022-09-21T03:24:09;5.83;;;2.83;;
10701;SDS011;5402;50.004;8.246;2022-09-21T03:26:35;3.00;;;2.70;;
10701;SDS011;5402;50.004;8.246;2022-09-21T03:29:03;5.03;;;2.80;;
10701;SDS011;5402;50.004;8.246;2022-09-21T03:31:30;3.53;;;2.83;;
10701;SDS011;5402;50.004;8.246;2022-09-21T03:33:58;4.57;;;2.87;;
10701;SDS011;5402;50.004;8.246;2022-09-21T03:36:26;3.23;;;2.80;;
10701;SDS011;5402;50.004;8.246;2022-09-21T03:38:52;5.07;;;3.27;;
10701;SDS011;5402;50.004;8.246;2022-09-21T03:41:19;5.70;;;3.10;;
10701;SDS011;5402;50.004;8.246;2022-09-21T03:43:46;5.10;;;3.30;;
10701;SDS011;5402;50.004;8.246;2022-09-21T03:46:13;5.83;;;3.07;;
10701;SDS011;5402;50.004;8.246;2022-09-21T03:48:42;4.77;;;3.30;;
10701;SDS011;5402;50.004;8.246;2022-09-21T03:51:11;3.37;;;2.77;;
10701;SDS011;5402;50.004;8.246;2022-09-21T03:53:39;3.97;;;3.30;;
10701;SDS011;5402;50.004;8.246;2022-09-21T03:56:06;3.30;;;3.00;;
10701;SDS011;5402;50.004;8.246;2022-09-21T03:58:33;4.73;;;2.93;;
10701;SDS011;5402;50.004;8.246;2022-09-21T04:01:00;4.10;;;2.90;;
10701;SDS011;5402;50.004;8.246;2022-09-21T04:03:27;3.80;;;2.90;;
10701;SDS011;5402;50.004;8.246;2022-09-21T04:05:54;5.30;;;3.10;;
10701;SDS011;5402;50.004;8.246;2022-09-21T04:08:21;3.83;;;3.00;;
10701;SDS011;5402;50.004;8.246;2022-09-21T04:10:49;4.07;;;2.87;;
10701;SDS011;5402;50.004;8.246;2022-09-21T04:13:16;3.23;;;2.93;;
10701;SDS011;5402;50.004;8.246;2022-09-21T04:15:43;5.30;;;3.10;;
10701;SDS011;5402;50.004;8.246;2022-09-21T04:18:10;3.70;;;3.30;;
10701;SDS011;5402;50.004;8.246;2022-09-21T04:20:37;7.30;;;3.37;;
10701;SDS011;5402;50.004;8.246;2022-09-21T04:23:05;4.13;;;3.23;;
10701;SDS011;5402;50.004;8.246;2022-09-21T04:25:33;4.27;;;3.30;;
10701;SDS011;5402;50.004;8.246;2022-09-21T04:28:02;4.90;;;3.30;;
10701;SDS011;5402;50.004;8.246;2022-09-21T04:30:30;4.40;;;3.20;;
10701;SDS011;5402;50.004;8.246;2022-09-21T04:32:57;4.40;;;3.40;;
10701;SDS011;5402;50.004;8.246;2022-09-21T04:35:24;4.20;;;3.07;;
10701;SDS011;5402;50.004;8.246;2022-09-21T04:37:53;3.57;;;2.87;;
10701;SDS011;5402;50.004;8.246;2022-09-21T04:40:20;4.57;;;3.10;;
10701;SDS011;5402;50.004;8.246;2022-09-21T04:42:49;3.77;;;3.30;;
10701;SDS011;5402;50.004;8.246;2022-09-21T04:45:18;3.80;;;3.33;;
10701;SDS011;5402;50.004;8.246;2022-09-21T04:47:45;4.90;;;2.97;;
10701;SDS011;5402;50.004;8.246;2022-09-21T04:50:12;4.37;;;3.30;;
10701;SDS011;5402;50.004;8.246;2022-09-21T04:52:39;3.63;;;3.33;;
10701;SDS011;5402;50.004;8.246;2022-09-21T04:55:06;4.00;;;3.30;;
10701;SDS011;5402;50.004;8.246;2022-09-21T04:57:34;4.90;;;3.77;;
10701;SDS011;5402;50.004;8.246;2022-09-21T05:00:00;12.07;;;6.27;;
10701;SDS011;5402;50.004;8.246;2022-09-21T05:02:29;27.00;;;13.77;;
10701;SDS011;5402;50.004;8.246;2022-09-21T05:04:56;11.93;;;5.97;;
10701;SDS011;5402;50.004;8.246;2022-09-21T05:07:23;6.47;;;3.83;;
10701;SDS011;5402;50.004;8.246;2022-09-21T05:09:50;9.07;;;5.60;;
10701;SDS011;5402;50.004;8.246;2022-09-21T05:12:27;7.50;;;5.17;;
10701;SDS011;5402;50.004;8.246;2022-09-21T05:14:54;7.83;;;5.33;;
10701;SDS011;5402;50.004;8.246;2022-09-21T05:17:21;6.50;;;4.60;;
10701;SDS011;5402;50.004;8.246;2022-09-21T05:19:49;7.73;;;5.10;;
10701;SDS011;5402;50.004;8.246;2022-09-21T05:22:17;7.53;;;5.40;;
10701;SDS011;5402;50.004;8.246;2022-09-21T05:24:44;9.93;;;6.77;;
10701;SDS011;5402;50.004;8.246;2022-09-21T05:27:11;9.13;;;5.77;;
10701;SDS011;5402;50.004;8.246;2022-09-21T05:29:38;7.53;;;5.30;;
10701;SDS011;5402;50.004;8.246;2022-09-21T05:32:07;9.80;;;5.13;;
10701;SDS011;5402;50.004;8.246;2022-09-21T05:34:43;8.27;;;4.93;;
10701;SDS011;5402;50.004;8.246;2022-09-21T05:37:25;8.93;;;5.40;;
10701;SDS011;5402;50.004;8.246;2022-09-21T05:40:03;9.57;;;5.60;;
10701;SDS011;5402;50.004;8.246;2022-09-21T05:42:33;6.43;;;4.90;;
10701;SDS011;5402;50.004;8.246;2022-09-21T05:45:00;7.43;;;5.03;;
10701;SDS011;5402;50.004;8.246;2022-09-21T05:47:31;5.77;;;4.47;;
10701;SDS011;5402;50.004;8.246;2022-09-21T05:50:12;6.83;;;4.63;;
10701;SDS011;5402;50.004;8.246;2022-09-21T05:52:46;9.70;;;4.80;;
10701;SDS011;5402;50.004;8.246;2022-09-21T05:55:23;8.83;;;5.20;;
10701;SDS011;5402;50.004;8.246;2022-09-21T05:57:59;7.77;;;4.77;;
10701;SDS011;5402;50.004;8.246;2022-09-21T06:00:36;6.47;;;4.70;;
10701;SDS011;5402;50.004;8.246;2022-09-21T06:03:15;5.53;;;4.47;;
10701;SDS011;5402;50.004;8.246;2022-09-21T06:05:53;6.27;;;4.87;;
10701;SDS011;5402;50.004;8.246;2022-09-21T06:08:22;9.57;;;5.43;;
10701;SDS011;5402;50.004;8.246;2022-09-21T06:10:51;11.17;;;5.00;;
10701;SDS011;5402;50.004;8.246;2022-09-21T06:13:18;8.47;;;5.70;;
10701;SDS011;5402;50.004;8.246;2022-09-21T06:15:46;8.13;;;5.00;;
10701;SDS011;5402;50.004;8.246;2022-09-21T06:18:13;7.10;;;4.77;;
10701;SDS011;5402;50.004;8.246;2022-09-21T06:20:39;6.77;;;4.90;;
10701;SDS011;5402;50.004;8.246;2022-09-21T06:23:08;8.87;;;5.20;;
10701;SDS011;5402;50.004;8.246;2022-09-21T06:25:37;8.13;;;5.20;;
10701;SDS011;5402;50.004;8.246;2022-09-21T06:28:07;7.50;;;5.03;;
10701;SDS011;5402;50.004;8.246;2022-09-21T06:30:35;7.30;;;4.70;;
10701;SDS011;5402;50.004;8.246;2022-09-21T06:33:04;6.13;;;4.40;;
10701;SDS011;5402;50.004;8.246;2022-09-21T06:35:32;8.97;;;4.53;;
10701;SDS011;5402;50.004;8.246;2022-09-21T06:38:00;7.20;;;5.00;;
10701;SDS011;5402;50.004;8.246;2022-09-21T06:40:31;6.53;;;4.80;;
10701;SDS011;5402;50.004;8.246;2022-09-21T06:42:59;7.27;;;5.10;;
10701;SDS011;5402;50.004;8.246;2022-09-21T06:45:27;7.30;;;4.50;;
10701;SDS011;5402;50.004;8.246;2022-09-21T06:47:55;8.73;;;5.13;;
10701;SDS011;5402;50.004;8.246;2022-09-21T06:50:22;8.57;;;5.37;;
10701;SDS011;5402;50.004;8.246;2022-09-21T06:52:49;6.67;;;5.33;;
10701;SDS011;5402;50.004;8.246;2022-09-21T06:55:16;8.97;;;6.10;;
10701;SDS011;5402;50.004;8.246;2022-09-21T06:57:44;10.33;;;6.13;;
10701;SDS011;5402;50.004;8.246;2022-09-21T07:00:11;11.40;;;6.43;;
10701;SDS011;5402;50.004;8.246;2022-09-21T07:02:41;13.33;;;6.97;;
10701;SDS011;5402;50.004;8.246;2022-09-21T07:05:09;10.93;;;6.97;;
10701;SDS011;5402;50.004;8.246;2022-09-21T07:07:36;7.63;;;6.33;;
10701;SDS011;5402;50.004;8.246;2022-09-21T07:10:04;8.97;;;6.27;;
10701;SDS011;5402;50.004;8.246;2022-09-21T07:12:33;10.23;;;7.17;;
10701;SDS011;5402;50.004;8.246;2022-09-21T07:15:01;9.50;;;6.43;;
10701;SDS011;5402;50.004;8.246;2022-09-21T07:17:31;9.67;;;6.93;;
10701;SDS011;5402;50.004;8.246;2022-09-21T07:19:58;10.13;;;6.23;;
10701;SDS011;5402;50.004;8.246;2022-09-21T07:22:26;8.80;;;6.17;;
10701;SDS011;5402;50.004;8.246;2022-09-21T07:24:54;11.37;;;7.03;;
10701;SDS011;5402;50.004;8.246;2022-09-21T07:27:21;8.77;;;6.13;;
10701;SDS011;5402;50.004;8.246;2022-09-21T07:29:49;7.40;;;6.40;;
10701;SDS011;5402;50.004;8.246;2022-09-21T07:32:17;10.00;;;6.27;;
10701;SDS011;5402;50.004;8.246;2022-09-21T07:34:44;7.57;;;5.37;;
10701;SDS011;5402;50.004;8.246;2022-09-21T07:37:10;7.07;;;5.53;;
10701;SDS011;5402;50.004;8.246;2022-09-21T07:39:37;8.90;;;5.90;;
10701;SDS011;5402;50.004;8.246;2022-09-21T07:42:04;7.73;;;5.50;;
10701;SDS011;5402;50.004;8.246;2022-09-21T07:44:31;7.47;;;5.23;;
10701;SDS011;5402;50.004;8.246;2022-09-21T07:46:58;10.97;;;6.10;;
10701;SDS011;5402;50.004;8.246;2022-09-21T07:49:27;8.90;;;6.00;;
10701;SDS011;5402;50.004;8.246;2022-09-21T07:51:54;7.23;;;5.40;;
10701;SDS011;5402;50.004;8.246;2022-09-21T07:54:21;7.63;;;5.50;;
10701;SDS011;5402;50.004;8.246;2022-09-21T07:56:48;8.60;;;5.67;;
10701;SDS011;5402;50.004;8.246;2022-09-21T07:59:28;8.97;;;5.50;;
10701;SDS011;5402;50.004;8.246;2022-09-21T08:01:56;8.80;;;6.10;;
10701;SDS011;5402;50.004;8.246;2022-09-21T08:04:24;8.03;;;6.23;;
10701;SDS011;5402;50.004;8.246;2022-09-21T08:06:53;8.77;;;6.33;;
10701;SDS011;5402;50.004;8.246;2022-09-21T08:09:19;10.70;;;6.20;;
10701;SDS011;5402;50.004;8.246;2022-09-21T08:11:46;8.00;;;5.80;;
10701;SDS011;5402;50.004;8.246;2022-09-21T08:14:13;8.27;;;5.73;;
10701;SDS011;5402;50.004;8.246;2022-09-21T08:16:43;7.83;;;5.80;;
10701;SDS011;5402;50.004;8.246;2022-09-21T08:19:11;10.37;;;6.00;;
10701;SDS011;5402;50.004;8.246;2022-09-21T08:21:38;6.67;;;5.63;;
10701;SDS011;5402;50.004;8.246;2022-09-21T08:24:07;11.70;;;6.50;;
10701;SDS011;5402;50.004;8.246;2022-09-21T08:26:34;8.13;;;5.63;;
10701;SDS011;5402;50.004;8.246;2022-09-21T08:29:02;9.37;;;6.13;;
10701;SDS011;5402;50.004;8.246;2022-09-21T08:31:32;9.73;;;6.33;;
10701;SDS011;5402;50.004;8.246;2022-09-21T08:33:59;9.70;;;6.17;;
10701;SDS011;5402;50.004;8.246;2022-09-21T08:36:27;7.83;;;6.37;;
10701;SDS011;5402;50.004;8.246;2022-09-21T08:38:54;7.17;;;6.10;;
10701;SDS011;5402;50.004;8.246;2022-09-21T08:41:23;10.33;;;6.50;;
10701;SDS011;5402;50.004;8.246;2022-09-21T08:44:09;9.27;;;6.40;;
10701;SDS011;5402;50.004;8.246;2022-09-21T08:46:40;9.27;;;6.37;;
10701;SDS011;5402;50.004;8.246;2022-09-21T08:49:10;9.20;;;5.50;;
10701;SDS011;5402;50.004;8.246;2022-09-21T08:51:43;10.07;;;6.23;;
10701;SDS011;5402;50.004;8.246;2022-09-21T08:54:13;8.43;;;5.90;;
10701;SDS011;5402;50.004;8.246;2022-09-21T08:56:47;11.00;;;6.03;;
10701;SDS011;5402;50.004;8.246;2022-09-21T08:59:14;7.07;;;5.53;;
10701;SDS011;5402;50.004;8.246;2022-09-21T09:01:46;8.70;;;6.47;;
10701;SDS011;5402;50.004;8.246;2022-09-21T09:04:27;8.27;;;5.67;;
10701;SDS011;5402;50.004;8.246;2022-09-21T09:07:08;8.43;;;5.80;;
10701;SDS011;5402;50.004;8.246;2022-09-21T09:09:59;7.33;;;5.80;;
10701;SDS011;5402;50.004;8.246;2022-09-21T09:12:48;8.90;;;5.27;;
10701;SDS011;5402;50.004;8.246;2022-09-21T09:15:35;11.13;;;5.50;;
10701;SDS011;5402;50.004;8.246;2022-09-21T09:18:17;9.23;;;4.80;;
10701;SDS011;5402;50.004;8.246;2022-09-21T09:20:54;9.43;;;5.70;;
10701;SDS011;5402;50.004;8.246;2022-09-21T09:23:24;5.80;;;4.10;;
10701;SDS011;5402;50.004;8.246;2022-09-21T09:25:55;7.97;;;4.00;;
10701;SDS011;5402;50.004;8.246;2022-09-21T09:28:29;8.33;;;4.23;;
10701;SDS011;5402;50.004;8.246;2022-09-21T09:31:02;9.67;;;4.40;;
10701;SDS011;5402;50.004;8.246;2022-09-21T09:33:40;7.53;;;3.93;;
10701;SDS011;5402;50.004;8.246;2022-09-21T09:36:13;5.90;;;4.20;;
10701;SDS011;5402;50.004;8.246;2022-09-21T09:38:43;8.00;;;4.17;;
10701;SDS011;5402;50.004;8.246;2022-09-21T09:44:50;5.63;;;3.53;;
10701;SDS011;5402;50.004;8.246;2022-09-21T09:47:31;5.80;;;3.10;;
10701;SDS011;5402;50.004;8.246;2022-09-21T09:50:08;5.73;;;3.10;;
10701;SDS011;5402;50.004;8.246;2022-09-21T09:52:38;4.23;;;2.90;;
10701;SDS011;5402;50.004;8.246;2022-09-21T09:55:10;5.37;;;2.20;;
10701;SDS011;5402;50.004;8.246;2022-09-21T09:57:44;3.00;;;2.23;;
10701;SDS011;5402;50.004;8.246;2022-09-21T10:00:14;4.97;;;2.13;;
10701;SDS011;5402;50.004;8.246;2022-09-21T10:02:46;3.90;;;2.10;;
10701;SDS011;5402;50.004;8.246;2022-09-21T10:05:19;2.97;;;2.10;;
10701;SDS011;5402;50.004;8.246;2022-09-21T10:07:48;4.27;;;2.00;;
10701;SDS011;5402;50.004;8.246;2022-09-21T10:10:23;3.90;;;1.70;;
10701;SDS011;5402;50.004;8.246;2022-09-21T10:13:01;3.13;;;1.43;;
10701;SDS011;5402;50.004;8.246;2022-09-21T10:15:37;4.87;;;2.00;;
10701;SDS011;5402;50.004;8.246;2022-09-21T10:18:12;2.87;;;1.53;;
10701;SDS011;5402;50.004;8.246;2022-09-21T10:20:51;2.70;;;1.70;;
10701;SDS011;5402;50.004;8.246;2022-09-21T10:23:20;3.87;;;1.60;;
10701;SDS011;5402;50.004;8.246;2022-09-21T10:25:51;3.17;;;1.70;;
10701;SDS011;5402;50.004;8.246;2022-09-21T10:28:20;2.23;;;1.80;;
10701;SDS011;5402;50.004;8.246;2022-09-21T10:30:50;5.77;;;1.73;;
10701;SDS011;5402;50.004;8.246;2022-09-21T10:33:34;2.83;;;1.83;;
10701;SDS011;5402;50.004;8.246;2022-09-21T10:36:20;3.53;;;1.80;;
10701;SDS011;5402;50.004;8.246;2022-09-21T10:39:08;3.87;;;2.10;;
10701;SDS011;5402;50.004;8.246;2022-09-21T10:41:45;3.97;;;2.03;;
10701;SDS011;5402;50.004;8.246;2022-09-21T10:44:14;3.93;;;2.03;;
10701;SDS011;5402;50.004;8.246;2022-09-21T10:46:43;4.33;;;1.93;;
10701;SDS011;5402;50.004;8.246;2022-09-21T10:51:42;3.60;;;1.97;;
10701;SDS011;5402;50.004;8.246;2022-09-21T10:54:13;3.30;;;1.90;;
10701;SDS011;5402;50.004;8.246;2022-09-21T10:56:49;5.07;;;1.97;;
10701;SDS011;5402;50.004;8.246;2022-09-21T10:59:20;3.73;;;1.90;;
10701;SDS011;5402;50.004;8.246;2022-09-21T11:01:53;5.60;;;2.03;;
10701;SDS011;5402;50.004;8.246;2022-09-21T11:04:23;2.70;;;2.10;;
10701;SDS011;5402;50.004;8.246;2022-09-21T11:07:01;4.27;;;2.13;;
10701;SDS011;5402;50.004;8.246;2022-09-21T11:09:34;4.17;;;2.13;;
10701;SDS011;5402;50.004;8.246;2022-09-21T11:12:07;2.70;;;1.90;;
10701;SDS011;5402;50.004;8.246;2022-09-21T11:14:48;2.57;;;1.77;;
10701;SDS011;5402;50.004;8.246;2022-09-21T11:17:25;4.70;;;1.83;;
10701;SDS011;5402;50.004;8.246;2022-09-21T11:20:02;2.20;;;1.50;;
10701;SDS011;5402;50.004;8.246;2022-09-21T11:22:39;4.13;;;1.50;;
10701;SDS011;5402;50.004;8.246;2022-09-21T11:25:17;4.00;;;1.53;;
10701;SDS011;5402;50.004;8.246;2022-09-21T11:27:52;2.90;;;1.40;;
10701;SDS011;5402;50.004;8.246;2022-09-21T11:30:23;1.77;;;1.47;;
10701;SDS011;5402;50.004;8.246;2022-09-21T11:32:55;2.30;;;1.23;;
10701;SDS011;5402;50.004;8.246;2022-09-21T11:35:34;5.50;;;1.53;;
10701;SDS011;5402;50.004;8.246;2022-09-21T11:38:27;1.50;;;1.20;;
10701;SDS011;5402;50.004;8.246;2022-09-21T11:41:06;2.47;;;1.40;;
10701;SDS011;5402;50.004;8.246;2022-09-21T11:43:48;1.90;;;1.50;;
10701;SDS011;5402;50.004;8.246;2022-09-21T11:46:24;2.57;;;1.70;;
10701;SDS011;5402;50.004;8.246;2022-09-21T11:49:05;1.73;;;1.40;;
10701;SDS011;5402;50.004;8.246;2022-09-21T11:51:56;1.50;;;1.40;;
10701;SDS011;5402;50.004;8.246;2022-09-21T11:54:45;2.60;;;1.20;;
10701;SDS011;5402;50.004;8.246;2022-09-21T11:57:24;1.70;;;1.47;;
10701;SDS011;5402;50.004;8.246;2022-09-21T11:59:56;4.97;;;1.43;;
10701;SDS011;5402;50.004;8.246;2022-09-21T12:02:50;1.70;;;1.20;;
10701;SDS011;5402;50.004;8.246;2022-09-21T12:08:57;2.63;;;1.30;;
10701;SDS011;5402;50.004;8.246;2022-09-21T12:11:35;2.20;;;1.23;;
10701;SDS011;5402;50.004;8.246;2022-09-21T12:14:10;1.50;;;1.00;;
10701;SDS011;5402;50.004;8.246;2022-09-21T12:16:44;3.23;;;1.40;;
10701;SDS011;5402;50.004;8.246;2022-09-21T12:19:17;2.53;;;1.30;;
10701;SDS011;5402;50.004;8.246;2022-09-21T12:21:54;1.40;;;1.30;;
10701;SDS011;5402;50.004;8.246;2022-09-21T12:24:26;14.87;;;2.53;;
10701;SDS011;5402;50.004;8.246;2022-09-21T12:26:57;1.50;;;1.10;;
10701;SDS011;5402;50.004;8.246;2022-09-21T12:29:32;2.43;;;1.17;;
10701;SDS011;5402;50.004;8.246;2022-09-21T12:32:12;2.03;;;1.10;;
10701;SDS011;5402;50.004;8.246;2022-09-21T12:34:48;1.23;;;0.90;;
10701;SDS011;5402;50.004;8.246;2022-09-21T12:37:22;2.63;;;1.20;;
10701;SDS011;5402;50.004;8.246;2022-09-21T12:39:54;1.87;;;1.30;;
10701;SDS011;5402;50.004;8.246;2022-09-21T12:42:28;3.10;;;1.20;;
10701;SDS011;5402;50.004;8.246;2022-09-21T12:45:00;1.93;;;1.00;;
10701;SDS011;5402;50.004;8.246;2022-09-21T12:47:35;2.50;;;1.20;;
10701;SDS011;5402;50.004;8.246;2022-09-21T12:50:15;2.30;;;1.17;;
10701;SDS011;5402;50.004;8.246;2022-09-21T12:52:47;1.10;;;1.00;;
10701;SDS011;5402;50.004;8.246;2022-09-21T12:55:31;1.73;;;1.10;;
10701;SDS011;5402;50.004;8.246;2022-09-21T12:58:12;1.30;;;1.20;;
10701;SDS011;5402;50.004;8.246;2022-09-21T13:00:56;1.60;;;1.20;;
10701;SDS011;5402;50.004;8.246;2022-09-21T13:03:31;1.70;;;0.97;;
10701;SDS011;5402;50.004;8.246;2022-09-21T13:06:13;1.70;;;1.07;;
10701;SDS011;5402;50.004;8.246;2022-09-21T13:09:01;2.07;;;1.07;;
10701;SDS011;5402;50.004;8.246;2022-09-21T13:11:30;1.30;;;0.90;;
10701;SDS011;5402;50.004;8.246;2022-09-21T13:13:59;1.43;;;1.03;;
10701;SDS011;5402;50.004;8.246;2022-09-21T13:16:30;1.70;;;1.00;;
10701;SDS011;5402;50.004;8.246;2022-09-21T13:18:58;1.73;;;1.20;;
10701;SDS011;5402;50.004;8.246;2022-09-21T13:21:27;1.13;;;0.93;;
10701;SDS011;5402;50.004;8.246;2022-09-21T13:23:57;1.67;;;1.10;;
10701;SDS011;5402;50.004;8.246;2022-09-21T13:26:32;1.40;;;0.90;;
10701;SDS011;5402;50.004;8.246;2022-09-21T13:32:02;1.80;;;1.07;;
10701;SDS011;5402;50.004;8.246;2022-09-21T13:34:45;1.10;;;1.00;;
10701;SDS011;5402;50.004;8.246;2022-09-21T13:37:26;0.70;;;0.60;;
10701;SDS011;5402;50.004;8.246;2022-09-21T13:43:22;1.10;;;0.93;;
10701;SDS011;5402;50.004;8.246;2022-09-21T13:45:54;1.20;;;1.00;;
10701;SDS011;5402;50.004;8.246;2022-09-21T13:48:25;3.43;;;0.80;;
10701;SDS011;5402;50.004;8.246;2022-09-21T13:51:04;1.27;;;1.03;;
10701;SDS011;5402;50.004;8.246;2022-09-21T13:53:34;1.83;;;0.90;;
10701;SDS011;5402;50.004;8.246;2022-09-21T13:56:06;1.07;;;0.87;;
10701;SDS011;5402;50.004;8.246;2022-09-21T13:58:39;1.53;;;0.80;;
10701;SDS011;5402;50.004;8.246;2022-09-21T14:01:11;1.43;;;1.13;;
10701;SDS011;5402;50.004;8.246;2022-09-21T14:03:42;2.10;;;1.00;;
10701;SDS011;5402;50.004;8.246;2022-09-21T14:06:11;2.17;;;0.90;;
10701;SDS011;5402;50.004;8.246;2022-09-21T14:08:44;1.60;;;1.00;;
10701;SDS011;5402;50.004;8.246;2022-09-21T14:11:15;1.17;;;1.00;;
10701;SDS011;5402;50.004;8.246;2022-09-21T14:13:59;0.70;;;0.70;;
10701;SDS011;5402;50.004;8.246;2022-09-21T14:16:48;1.70;;;0.80;;
10701;SDS011;5402;50.004;8.246;2022-09-21T14:22:35;1.73;;;0.93;;
10701;SDS011;5402;50.004;8.246;2022-09-21T14:25:22;1.97;;;0.90;;
10701;SDS011;5402;50.004;8.246;2022-09-21T14:28:12;1.70;;;0.80;;
10701;SDS011;5402;50.004;8.246;2022-09-21T14:30:48;1.37;;;0.87;;
10701;SDS011;5402;50.004;8.246;2022-09-21T14:33:29;2.13;;;0.80;;
10701;SDS011;5402;50.004;8.246;2022-09-21T14:36:00;1.90;;;0.73;;
10701;SDS011;5402;50.004;8.246;2022-09-21T14:38:34;1.03;;;0.90;;
10701;SDS011;5402;50.004;8.246;2022-09-21T14:41:10;1.87;;;0.93;;
10701;SDS011;5402;50.004;8.246;2022-09-21T14:43:43;0.90;;;0.90;;
10701;SDS011;5402;50.004;8.246;2022-09-21T14:49:37;1.23;;;0.60;;
10701;SDS011;5402;50.004;8.246;2022-09-21T14:52:18;1.07;;;0.73;;
10701;SDS011;5402;50.004;8.246;2022-09-21T14:54:55;0.80;;;0.80;;
10701;SDS011;5402;50.004;8.246;2022-09-21T14:57:56;1.30;;;0.60;;
10701;SDS011;5402;50.004;8.246;2022-09-21T15:00:36;0.70;;;0.70;;
10701;SDS011;5402;50.004;8.246;2022-09-21T15:03:10;1.90;;;0.90;;
10701;SDS011;5402;50.004;8.246;2022-09-21T15:06:13;0.97;;;0.90;;
10701;SDS011;5402;50.004;8.246;2022-09-21T15:09:12;1.10;;;0.80;;
10701;SDS011;5402;50.004;8.246;2022-09-21T15:12:17;0.63;;;0.63;;
10701;SDS011;5402;50.004;8.246;2022-09-21T15:14:47;0.63;;;0.60;;
10701;SDS011;5402;50.004;8.246;2022-09-21T15:17:22;1.50;;;0.90;;
10701;SDS011;5402;50.004;8.246;2022-09-21T15:19:50;0.70;;;0.67;;
10701;SDS011;5402;50.004;8.246;2022-09-21T15:22:19;2.30;;;1.20;;
10701;SDS011;5402;50.004;8.246;2022-09-21T15:24:47;2.30;;;0.80;;
10701;SDS011;5402;50.004;8.246;2022-09-21T15:27:15;0.80;;;0.80;;
10701;SDS011;5402;50.004;8.246;2022-09-21T15:29:44;1.97;;;0.93;;
10701;SDS011;5402;50.004;8.246;2022-09-21T15:32:14;0.77;;;0.77;;
10701;SDS011;5402;50.004;8.246;2022-09-21T15:34:56;1.70;;;0.80;;
10701;SDS011;5402;50.004;8.246;2022-09-21T15:37:27;1.43;;;0.80;;
10701;SDS011;5402;50.004;8.246;2022-09-21T15:39:59;2.13;;;0.90;;
10701;SDS011;5402;50.004;8.246;2022-09-21T15:42:26;0.73;;;0.70;;
10701;SDS011;5402;50.004;8.246;2022-09-21T15:45:00;1.80;;;0.97;;
10701;SDS011;5402;50.004;8.246;2022-09-21T15:47:35;1.00;;;0.90;;
10701;SDS011;5402;50.004;8.246;2022-09-21T15:50:10;1.43;;;0.77;;
10701;SDS011;5402;50.004;8.246;2022-09-21T15:52:49;1.60;;;1.00;;
10701;SDS011;5402;50.004;8.246;2022-09-21T15:55:20;2.03;;;1.00;;
10701;SDS011;5402;50.004;8.246;2022-09-21T15:57:48;1.97;;;0.83;;